CYCY

Clyde River Airport

Clyde River, Canada
METAR CYCY 211500Z AUTO 35005KT 9SM CLR M11/M14 A3006 RMK SLP183
Observed Flight Rules
Apr-21 @ 15:00 UTC (40 minutes ago) Visual Flight Rules
Wind Visibility Clouds
350° at 5 knots 9 miles
  • Clear skies
Temperatures Readings
Current -11°C / 12°F
Dewpoint -14°C / 7°F
Humidity 79%
Altimeter 30.06" Hg
Pressure 1018.3 hPa
Elevation 26
METAR CYCY 211500Z AUTO 35005KT 9SM CLR M11/M14 A3006 RMK SLP183
Observed Flight Rules
Apr-21 @ 15:00 UTC
(40 minutes ago)
VFR
Wind Visibility
350° at 5 knots 9 miles
Clouds
  • Clear skies
Temperature Dewpoint
-11°C / 12°F -14°C / 7°F
Humidity Altimeter Pressure
79% 30.06" Hg 1018.3 hPa